Terminal Aerodrome Forecast
Issued by NWS

Home | Current Version | Previous Version | Text Only | Print | Product List | Glossary On
Versions: 1 2 3 4 5 6 7 8 9 10 11 12 13 14 15 16 17 18 19 20 21 22
000
FTUS43 KBIS 251100
TAFMOT
TAF
KMOT 251134Z 2512/2612 28015KT P6SM SCT025
     FM251500 27015G25KT P6SM SKC
     FM260200 26009KT P6SM SKC
     FM260600 23009KT P6SM SKC=

USA.gov is the U.S. government's official web portal to all federal, state and local government web resources and services.